Time;durP1;ratioP1;P1;durP2;ratioP2;P2;SDS_P1;SDS_P2;PMS_P1;PMS_P2;Temp;Humidity;BMP_temperature;BMP_pressure;BME280_temperature;BME280_humidity;BME280_pressure;Samples;Min_cycle;Max_cycle;Signal;HPM_P1;HPM_P2
2022/10/11 00:02:01;;;;;;;9.33;6.20;;;;;;;;;;5041580;28;20640;-79
2022/10/11 00:04:27;;;;;;;10.00;7.00;;;;;;;;;;5041701;28;20276;-79
2022/10/11 00:06:53;;;;;;;9.37;7.00;;;;;;;;;;5041339;28;20586;-79
2022/10/11 00:09:19;;;;;;;9.33;7.17;;;;;;;;;;5057578;28;20216;-79
2022/10/11 00:11:45;;;;;;;7.87;6.10;;;;;;;;;;5058963;28;20667;-79
2022/10/11 00:14:11;;;;;;;7.20;5.73;;;;;;;;;;5041352;28;20676;-79
2022/10/11 00:16:39;;;;;;;8.73;6.00;;;;;;;;;;5041025;28;20182;-79
2022/10/11 00:19:06;;;;;;;8.63;5.90;;;;;;;;;;5057987;28;20223;-79
2022/10/11 00:21:32;;;;;;;7.30;5.70;;;;;;;;;;5041144;28;20195;-79
2022/10/11 00:23:58;;;;;;;7.20;5.17;;;;;;;;;;5041470;28;20288;-79
2022/10/11 00:26:24;;;;;;;7.53;5.50;;;;;;;;;;5041477;28;20566;-79
2022/10/11 00:28:51;;;;;;;5.87;4.77;;;;;;;;;;5041367;28;20178;-79
2022/10/11 00:31:18;;;;;;;5.17;4.67;;;;;;;;;;5057459;28;20217;-79
2022/10/11 00:33:44;;;;;;;7.00;4.57;;;;;;;;;;5057495;28;20169;-79
2022/10/11 00:36:13;;;;;;;4.93;4.17;;;;;;;;;;5057274;28;20230;-79
2022/10/11 00:38:39;;;;;;;6.17;4.07;;;;;;;;;;5058675;28;20169;-79
2022/10/11 00:41:05;;;;;;;6.43;4.00;;;;;;;;;;5041579;28;20193;-80
2022/10/11 00:43:32;;;;;;;4.53;3.60;;;;;;;;;;5057367;28;20205;-79
2022/10/11 00:45:58;;;;;;;4.97;3.43;;;;;;;;;;5057837;28;20204;-79
2022/10/11 00:48:26;;;;;;;5.57;3.70;;;;;;;;;;5057216;28;20174;-79
2022/10/11 00:50:53;;;;;;;4.37;3.03;;;;;;;;;;5057354;28;20672;-79
2022/10/11 00:53:19;;;;;;;3.23;2.70;;;;;;;;;;5040279;28;20254;-79
2022/10/11 00:55:48;;;;;;;4.23;2.53;;;;;;;;;;5057285;28;20197;-79
2022/10/11 00:58:15;;;;;;;3.90;2.60;;;;;;;;;;5056822;28;20180;-79
2022/10/11 01:00:41;;;;;;;5.30;2.70;;;;;;;;;;5040059;28;20186;-79
2022/10/11 01:03:07;;;;;;;5.40;2.73;;;;;;;;;;5040277;28;20275;-79
2022/10/11 01:05:35;;;;;;;5.00;2.60;;;;;;;;;;5040174;28;20307;-79
2022/10/11 01:08:02;;;;;;;4.00;2.50;;;;;;;;;;5056809;28;20177;-79
2022/10/11 01:10:28;;;;;;;5.03;2.43;;;;;;;;;;5040692;28;20713;-80
2022/10/11 01:12:54;;;;;;;4.87;2.60;;;;;;;;;;5040409;28;20184;-79
2022/10/11 01:15:33;;;;;;;4.40;2.67;;;;;;;;;;5056856;28;20194;-79
2022/10/11 01:18:08;;;;;;;6.00;2.40;;;;;;;;;;5056705;28;20173;-79
2022/10/11 01:20:54;;;;;;;4.33;2.00;;;;;;;;;;5056968;28;20177;-79
2022/10/11 01:23:32;;;;;;;4.77;2.00;;;;;;;;;;5056212;28;20203;-79
2022/10/11 01:26:13;;;;;;;4.53;1.83;;;;;;;;;;5056312;28;20213;-79
2022/10/11 01:29:08;;;;;;;4.40;1.47;;;;;;;;;;5056597;28;20178;-79
2022/10/11 01:31:38;;;;;;;6.20;1.40;;;;;;;;;;5051141;28;20221;-79
2022/10/11 01:34:11;;;;;;;3.70;1.60;;;;;;;;;;5056088;28;20188;-79
2022/10/11 01:36:39;;;;;;;5.20;1.60;;;;;;;;;;5056764;28;20272;-79
2022/10/11 01:39:09;;;;;;;4.00;1.70;;;;;;;;;;5055981;28;20193;-79
2022/10/11 01:41:40;;;;;;;5.13;1.50;;;;;;;;;;5056187;28;20178;-79
2022/10/11 01:44:07;;;;;;;3.47;1.50;;;;;;;;;;5056747;28;20523;-79
2022/10/11 01:46:34;;;;;;;5.07;1.93;;;;;;;;;;5039334;28;20201;-79
2022/10/11 01:49:01;;;;;;;3.83;1.60;;;;;;;;;;5040145;28;20276;-80
2022/10/11 01:51:29;;;;;;;4.40;1.57;;;;;;;;;;5056011;28;20201;-79
2022/10/11 01:53:55;;;;;;;4.20;1.60;;;;;;;;;;5057260;28;20172;-79
2022/10/11 01:56:33;;;;;;;5.23;1.60;;;;;;;;;;5055851;28;20285;-79
2022/10/11 01:59:18;;;;;;;5.73;1.53;;;;;;;;;;5056341;28;20174;-79
2022/10/11 02:01:47;;;;;;;5.10;1.50;;;;;;;;;;5055711;28;20264;-79
2022/10/11 02:04:16;;;;;;;6.17;1.80;;;;;;;;;;5055724;28;20284;-79
2022/10/11 02:06:54;;;;;;;4.50;1.50;;;;;;;;;;5057460;28;20166;-80
2022/10/11 02:09:20;;;;;;;3.73;1.40;;;;;;;;;;5056825;28;20166;-79
2022/10/11 02:11:46;;;;;;;5.60;1.50;;;;;;;;;;5055913;28;20173;-80
2022/10/11 02:14:15;;;;;;;5.87;1.70;;;;;;;;;;5055583;28;20169;-79
2022/10/11 02:17:03;;;;;;;6.63;1.53;;;;;;;;;;5055396;28;20237;-79
2022/10/11 02:19:32;;;;;;;5.20;1.80;;;;;;;;;;5056234;28;20177;-79
2022/10/11 02:22:02;;;;;;;3.60;1.30;;;;;;;;;;5055445;28;20640;-79
2022/10/11 02:24:30;;;;;;;3.67;1.40;;;;;;;;;;5054947;28;20181;-79
2022/10/11 02:26:58;;;;;;;4.77;1.50;;;;;;;;;;5055348;28;20187;-80
2022/10/11 02:29:26;;;;;;;6.53;1.60;;;;;;;;;;5038873;28;20217;-79
2022/10/11 02:31:52;;;;;;;3.67;1.60;;;;;;;;;;5056779;28;20205;-79
2022/10/11 02:34:21;;;;;;;5.37;1.63;;;;;;;;;;5055100;28;20173;-79
2022/10/11 02:36:47;;;;;;;6.03;1.93;;;;;;;;;;5055451;28;20196;-79
2022/10/11 02:39:16;;;;;;;6.57;1.40;;;;;;;;;;5055342;28;20177;-79
2022/10/11 02:41:42;;;;;;;4.57;1.60;;;;;;;;;;5054656;28;20184;-79
2022/10/11 02:44:10;;;;;;;6.67;1.50;;;;;;;;;;5055484;28;20717;-79
2022/10/11 02:46:37;;;;;;;4.37;1.57;;;;;;;;;;5055567;28;20274;-79
2022/10/11 02:49:03;;;;;;;6.70;1.60;;;;;;;;;;5038424;28;20182;-79
2022/10/11 02:51:30;;;;;;;5.10;1.33;;;;;;;;;;5053957;28;20205;-79
2022/10/11 02:53:56;;;;;;;4.63;1.60;;;;;;;;;;5054856;28;20264;-79
2022/10/11 02:56:22;;;;;;;5.47;1.60;;;;;;;;;;5037667;28;20294;-79
2022/10/11 02:58:48;;;;;;;6.83;1.73;;;;;;;;;;5037538;28;20185;-79
2022/10/11 03:01:14;;;;;;;7.10;1.93;;;;;;;;;;5037547;28;20193;-79
2022/10/11 03:03:41;;;;;;;4.33;1.37;;;;;;;;;;5054626;28;20174;-79
2022/10/11 03:06:07;;;;;;;5.17;1.67;;;;;;;;;;5054285;28;20243;-79
2022/10/11 03:08:33;;;;;;;9.20;1.80;;;;;;;;;;5037410;28;20247;-79
2022/10/11 03:10:59;;;;;;;6.97;1.80;;;;;;;;;;5053913;28;20197;-79
2022/10/11 03:13:25;;;;;;;7.43;1.73;;;;;;;;;;5037923;28;20173;-79
2022/10/11 03:15:52;;;;;;;5.53;1.90;;;;;;;;;;5037815;28;20205;-79
2022/10/11 03:18:18;;;;;;;7.13;1.67;;;;;;;;;;5055674;28;20177;-79
2022/10/11 03:20:44;;;;;;;5.50;1.50;;;;;;;;;;5041239;28;20189;-79
2022/10/11 03:23:10;;;;;;;6.47;1.60;;;;;;;;;;5057315;28;20181;-79
2022/10/11 03:25:36;;;;;;;4.33;1.90;;;;;;;;;;5057347;28;20266;-79
2022/10/11 03:28:02;;;;;;;6.60;1.77;;;;;;;;;;5039834;28;20185;-79
2022/10/11 03:30:28;;;;;;;5.33;1.20;;;;;;;;;;5056026;28;20237;-79
2022/10/11 03:32:54;;;;;;;7.10;1.57;;;;;;;;;;5055454;28;20235;-79
2022/10/11 03:35:20;;;;;;;5.23;1.50;;;;;;;;;;5039399;28;20204;-79
2022/10/11 03:37:46;;;;;;;3.63;1.33;;;;;;;;;;5039232;28;20213;-78
2022/10/11 03:40:13;;;;;;;5.17;1.60;;;;;;;;;;5055723;28;20177;-79
2022/10/11 03:42:39;;;;;;;5.10;1.47;;;;;;;;;;5055556;28;20185;-78
2022/10/11 03:45:07;;;;;;;6.07;1.53;;;;;;;;;;5055840;28;20202;-79
2022/10/11 03:47:39;;;;;;;4.73;1.87;;;;;;;;;;5055736;28;20174;-79
2022/10/11 03:50:06;;;;;;;2.13;1.17;;;;;;;;;;5038510;28;20292;-79
2022/10/11 03:52:32;;;;;;;5.37;1.40;;;;;;;;;;5038670;28;20178;-79
2022/10/11 03:54:58;;;;;;;5.77;1.63;;;;;;;;;;5038687;28;20251;-79
2022/10/11 03:57:24;;;;;;;4.37;1.20;;;;;;;;;;5038982;28;20181;-79
2022/10/11 03:59:50;;;;;;;6.73;1.40;;;;;;;;;;5038741;28;20182;-78
2022/10/11 04:02:16;;;;;;;6.80;1.47;;;;;;;;;;5038656;28;20177;-79
2022/10/11 04:04:42;;;;;;;6.93;1.93;;;;;;;;;;5038782;28;20206;-79
2022/10/11 04:07:08;;;;;;;4.80;1.53;;;;;;;;;;5038566;28;20186;-78
2022/10/11 04:09:34;;;;;;;4.30;1.50;;;;;;;;;;5038668;28;20316;-79
2022/10/11 04:12:00;;;;;;;3.57;1.30;;;;;;;;;;5038057;28;20644;-79
2022/10/11 04:14:26;;;;;;;4.23;1.33;;;;;;;;;;5038921;28;20178;-78
2022/10/11 04:16:52;;;;;;;2.93;1.13;;;;;;;;;;5038059;28;20177;-79
2022/10/11 04:19:19;;;;;;;5.40;1.30;;;;;;;;;;5054997;28;20176;-79
2022/10/11 04:21:45;;;;;;;6.03;1.40;;;;;;;;;;5056533;28;20192;-78
2022/10/11 04:24:11;;;;;;;4.63;1.60;;;;;;;;;;5039719;28;20191;-79
2022/10/11 04:26:37;;;;;;;5.43;1.50;;;;;;;;;;5055811;28;20613;-79
2022/10/11 04:29:04;;;;;;;5.73;1.80;;;;;;;;;;5039497;28;20191;-79
2022/10/11 04:31:30;;;;;;;5.20;1.43;;;;;;;;;;5055161;28;20216;-79
2022/10/11 04:33:56;;;;;;;5.77;1.70;;;;;;;;;;5039060;28;20174;-79
2022/10/11 04:36:22;;;;;;;4.53;1.20;;;;;;;;;;5039915;28;20205;-79
2022/10/11 04:38:48;;;;;;;4.97;1.60;;;;;;;;;;5056075;28;20199;-79
2022/10/11 04:41:15;;;;;;;6.20;1.47;;;;;;;;;;5055994;28;20519;-78
2022/10/11 04:43:41;;;;;;;5.57;1.33;;;;;;;;;;5055543;28;20177;-80
2022/10/11 04:46:08;;;;;;;4.33;1.60;;;;;;;;;;5055397;28;20232;-79
2022/10/11 04:48:34;;;;;;;5.07;1.30;;;;;;;;;;5055209;28;20196;-79
2022/10/11 04:51:00;;;;;;;6.40;1.63;;;;;;;;;;5056624;28;20196;-79
2022/10/11 04:53:26;;;;;;;4.53;1.43;;;;;;;;;;5039341;28;20230;-79
2022/10/11 04:56:00;;;;;;;2.93;1.27;;;;;;;;;;5038670;28;20206;-79
2022/10/11 04:58:26;;;;;;;4.50;1.37;;;;;;;;;;5055438;28;20174;-80
2022/10/11 05:00:52;;;;;;;3.67;1.23;;;;;;;;;;5036932;28;20211;-78
2022/10/11 05:03:18;;;;;;;3.97;1.60;;;;;;;;;;5054046;28;20640;-77
2022/10/11 05:05:44;;;;;;;7.20;1.30;;;;;;;;;;5053132;28;20226;-78
2022/10/11 05:08:11;;;;;;;5.60;1.90;;;;;;;;;;5036095;28;20275;-77
2022/10/11 05:10:37;;;;;;;3.13;1.23;;;;;;;;;;5052995;28;20211;-77
2022/10/11 05:13:03;;;;;;;2.97;1.30;;;;;;;;;;5035941;28;20183;-77
2022/10/11 05:15:29;;;;;;;2.87;1.33;;;;;;;;;;5036273;28;20282;-78
2022/10/11 05:17:55;;;;;;;4.87;1.33;;;;;;;;;;5035795;28;20180;-77
2022/10/11 05:20:21;;;;;;;5.80;1.30;;;;;;;;;;5036278;28;20183;-77
2022/10/11 05:22:46;;;;;;;5.53;1.50;;;;;;;;;;5036242;28;20214;-77
2022/10/11 05:25:12;;;;;;;6.50;1.43;;;;;;;;;;5036050;28;20227;-78
2022/10/11 05:27:38;;;;;;;4.33;1.37;;;;;;;;;;5036188;28;20178;-78
2022/10/11 05:30:05;;;;;;;4.70;1.50;;;;;;;;;;5037336;28;20629;-77
2022/10/11 05:32:31;;;;;;;6.23;1.53;;;;;;;;;;5052557;28;20183;-77
2022/10/11 05:34:57;;;;;;;3.60;1.30;;;;;;;;;;5052342;28;20196;-78
2022/10/11 05:37:23;;;;;;;3.97;1.30;;;;;;;;;;5035603;28;20177;-77
2022/10/11 05:39:49;;;;;;;5.43;1.40;;;;;;;;;;5035290;28;20192;-78
2022/10/11 05:42:15;;;;;;;4.63;1.40;;;;;;;;;;5051561;28;20187;-77
2022/10/11 05:44:41;;;;;;;7.50;1.70;;;;;;;;;;5051864;28;20205;-76
2022/10/11 05:47:07;;;;;;;8.27;1.80;;;;;;;;;;5035418;28;20246;-78
2022/10/11 05:49:33;;;;;;;7.27;1.60;;;;;;;;;;5035581;28;20181;-77
2022/10/11 05:51:59;;;;;;;5.83;2.17;;;;;;;;;;5034931;28;20270;-77
2022/10/11 05:54:28;;;;;;;5.23;1.80;;;;;;;;;;5035117;28;20175;-78
2022/10/11 05:56:54;;;;;;;6.63;1.60;;;;;;;;;;5035322;28;20265;-78
2022/10/11 05:59:20;;;;;;;5.80;1.53;;;;;;;;;;5035565;28;20608;-78
2022/10/11 06:01:46;;;;;;;3.50;1.47;;;;;;;;;;5035040;28;20196;-79
2022/10/11 06:04:13;;;;;;;3.67;1.30;;;;;;;;;;5035861;28;20185;-78
2022/10/11 06:06:39;;;;;;;12.03;1.50;;;;;;;;;;5036745;28;20190;-79
2022/10/11 06:09:05;;;;;;;3.43;1.20;;;;;;;;;;5036284;28;20279;-79
2022/10/11 06:11:32;;;;;;;6.17;1.73;;;;;;;;;;5051179;28;20316;-78
2022/10/11 06:13:58;;;;;;;3.77;1.20;;;;;;;;;;5034851;28;20181;-78
2022/10/11 06:16:25;;;;;;;2.50;1.30;;;;;;;;;;5034709;28;20205;-77
2022/10/11 06:18:54;;;;;;;6.63;1.80;;;;;;;;;;5034803;28;20226;-79
2022/10/11 06:21:20;;;;;;;3.37;1.20;;;;;;;;;;5036892;28;20181;-79
2022/10/11 06:23:50;;;;;;;4.27;1.47;;;;;;;;;;5036254;28;20199;-79
2022/10/11 06:26:16;;;;;;;5.27;1.60;;;;;;;;;;5036074;28;20247;-80
2022/10/11 06:28:42;;;;;;;5.33;1.20;;;;;;;;;;5053089;28;20190;-79
2022/10/11 06:31:08;;;;;;;5.43;1.50;;;;;;;;;;5036269;28;20295;-80
2022/10/11 06:33:35;;;;;;;4.67;1.43;;;;;;;;;;5052754;28;20181;-79
2022/10/11 06:36:02;;;;;;;4.27;1.43;;;;;;;;;;5036197;28;20200;-79
2022/10/11 06:38:28;;;;;;;5.10;1.50;;;;;;;;;;5052636;28;20177;-79
2022/10/11 06:40:54;;;;;;;5.27;1.40;;;;;;;;;;5035667;28;20198;-78
2022/10/11 06:43:21;;;;;;;4.70;1.60;;;;;;;;;;5034723;28;20185;-80
2022/10/11 06:45:47;;;;;;;2.97;1.57;;;;;;;;;;5051443;28;20253;-80
2022/10/11 06:48:13;;;;;;;3.20;1.53;;;;;;;;;;5051483;28;20176;-79
2022/10/11 06:50:39;;;;;;;4.73;1.53;;;;;;;;;;5051688;28;20579;-78
2022/10/11 06:53:08;;;;;;;7.07;2.07;;;;;;;;;;5051377;28;20177;-78
2022/10/11 06:55:34;;;;;;;7.53;2.23;;;;;;;;;;5055176;28;20198;-78
2022/10/11 06:58:00;;;;;;;4.90;2.17;;;;;;;;;;5055495;28;20205;-79
2022/10/11 07:00:26;;;;;;;5.23;1.97;;;;;;;;;;5039093;28;20588;-79
2022/10/11 07:02:52;;;;;;;8.00;2.10;;;;;;;;;;5055549;28;20180;-79
2022/10/11 07:05:18;;;;;;;3.90;1.93;;;;;;;;;;5039518;28;20258;-79
2022/10/11 07:07:44;;;;;;;6.57;2.20;;;;;;;;;;5057581;28;20192;-79
2022/10/11 07:10:10;;;;;;;5.83;2.57;;;;;;;;;;5042379;28;20212;-77
2022/10/11 07:12:36;;;;;;;8.10;2.53;;;;;;;;;;5041905;28;20214;-77
2022/10/11 07:15:03;;;;;;;6.60;2.20;;;;;;;;;;5040960;28;20204;-77
2022/10/11 07:17:28;;;;;;;6.23;2.30;;;;;;;;;;5040768;28;20248;-78
2022/10/11 07:19:54;;;;;;;6.57;2.30;;;;;;;;;;5039308;28;20212;-79
2022/10/11 07:22:20;;;;;;;4.77;1.90;;;;;;;;;;5056699;28;20208;-79
2022/10/11 07:24:48;;;;;;;6.17;2.30;;;;;;;;;;5040025;28;20222;-79
2022/10/11 07:27:14;;;;;;;4.13;2.00;;;;;;;;;;5056540;28;20272;-78
2022/10/11 07:29:40;;;;;;;5.53;1.70;;;;;;;;;;5056660;28;20188;-79
2022/10/11 07:32:06;;;;;;;7.90;2.00;;;;;;;;;;5056422;28;20172;-78
2022/10/11 07:34:31;;;;;;;7.40;2.50;;;;;;;;;;5058805;28;20204;-79
2022/10/11 07:36:58;;;;;;;7.80;2.30;;;;;;;;;;5040439;28;20184;-78
2022/10/11 07:39:23;;;;;;;6.73;2.17;;;;;;;;;;5036695;28;20277;-77
2022/10/11 07:41:49;;;;;;;6.07;2.10;;;;;;;;;;5030289;28;20285;-77
2022/10/11 07:44:15;;;;;;;5.27;2.17;;;;;;;;;;5019003;28;20196;-77
2022/10/11 07:46:41;;;;;;;6.33;2.00;;;;;;;;;;5020101;28;20264;-78
2022/10/11 07:49:07;;;;;;;5.53;2.00;;;;;;;;;;5056378;28;20180;-78
2022/10/11 07:51:33;;;;;;;6.30;2.23;;;;;;;;;;5040146;28;20680;-78
2022/10/11 07:53:59;;;;;;;7.47;1.80;;;;;;;;;;5040620;28;20184;-78
2022/10/11 07:56:26;;;;;;;7.33;2.47;;;;;;;;;;5040411;28;20198;-78
2022/10/11 07:58:54;;;;;;;6.53;2.30;;;;;;;;;;5040354;28;20181;-78
2022/10/11 08:01:20;;;;;;;8.57;2.17;;;;;;;;;;5056740;28;20594;-78
2022/10/11 08:03:46;;;;;;;7.73;2.47;;;;;;;;;;5056855;28;20181;-79
2022/10/11 08:06:14;;;;;;;8.00;2.00;;;;;;;;;;5038717;28;20202;-79
2022/10/11 08:08:39;;;;;;;9.70;2.50;;;;;;;;;;5056145;28;20190;-78
2022/10/11 08:11:06;;;;;;;7.03;2.27;;;;;;;;;;5040104;28;20211;-78
2022/10/11 08:13:32;;;;;;;10.97;2.87;;;;;;;;;;5057058;28;20177;-78
2022/10/11 08:16:00;;;;;;;7.37;2.17;;;;;;;;;;5056067;28;20200;-78
2022/10/11 08:18:26;;;;;;;12.87;2.70;;;;;;;;;;5039627;28;20198;-78
2022/10/11 08:20:52;;;;;;;5.73;1.83;;;;;;;;;;5040510;28;20193;-78
2022/10/11 08:23:19;;;;;;;9.10;2.10;;;;;;;;;;5040115;28;20177;-78
2022/10/11 08:25:46;;;;;;;7.57;2.20;;;;;;;;;;5058669;28;20228;-78
2022/10/11 08:28:15;;;;;;;11.17;2.50;;;;;;;;;;5059206;28;20281;-78
2022/10/11 08:30:51;;;;;;;7.30;2.23;;;;;;;;;;5057412;28;20197;-78
2022/10/11 08:33:18;;;;;;;8.47;2.10;;;;;;;;;;5058761;28;20174;-79
2022/10/11 08:35:44;;;;;;;9.60;2.73;;;;;;;;;;5059003;28;20197;-79
2022/10/11 08:38:10;;;;;;;9.47;2.30;;;;;;;;;;5059501;28;20177;-79
2022/10/11 08:40:36;;;;;;;8.13;2.23;;;;;;;;;;5059360;28;20173;-78
2022/10/11 08:43:04;;;;;;;7.83;2.27;;;;;;;;;;5059020;28;20227;-78
2022/10/11 08:45:38;;;;;;;7.70;2.20;;;;;;;;;;5059089;28;20288;-78
2022/10/11 08:48:27;;;;;;;6.63;2.30;;;;;;;;;;5058779;28;20166;-78
2022/10/11 08:50:54;;;;;;;8.60;2.23;;;;;;;;;;5059704;28;20205;-78
2022/10/11 08:53:26;;;;;;;8.20;2.00;;;;;;;;;;5058451;28;20176;-78
2022/10/11 08:55:53;;;;;;;6.73;2.07;;;;;;;;;;5057075;28;20290;-78
2022/10/11 08:58:33;;;;;;;8.50;2.07;;;;;;;;;;5056500;28;20169;-78
2022/10/11 09:01:00;;;;;;;8.53;2.27;;;;;;;;;;5056754;28;20173;-78
2022/10/11 09:03:46;;;;;;;6.57;2.27;;;;;;;;;;5039817;28;20179;-78
2022/10/11 09:06:16;;;;;;;4.80;2.00;;;;;;;;;;5056409;28;20200;-78
2022/10/11 09:08:51;;;;;;;7.40;2.43;;;;;;;;;;5056426;28;20166;-78
2022/10/11 09:11:17;;;;;;;9.37;2.10;;;;;;;;;;5055548;28;20193;-78
2022/10/11 09:13:43;;;;;;;4.80;1.80;;;;;;;;;;5055870;28;20261;-78
2022/10/11 09:16:28;;;;;;;7.10;2.10;;;;;;;;;;5055716;28;20196;-78
2022/10/11 09:19:03;;;;;;;7.13;1.80;;;;;;;;;;5056925;28;20233;-78
2022/10/11 09:21:38;;;;;;;5.80;1.73;;;;;;;;;;5055533;28;20180;-78
2022/10/11 09:24:12;;;;;;;6.47;2.20;;;;;;;;;;5055445;28;20640;-78
2022/10/11 09:26:55;;;;;;;7.03;1.93;;;;;;;;;;5073171;23;20228;-77
2022/10/11 09:29:28;;;;;;;6.83;2.13;;;;;;;;;;5033376;28;20170;-77
2022/10/11 09:31:55;;;;;;;7.73;1.87;;;;;;;;;;5034768;28;20212;-77
2022/10/11 09:34:25;;;;;;;7.57;1.90;;;;;;;;;;5036178;28;20180;-77
2022/10/11 09:36:51;;;;;;;6.80;2.00;;;;;;;;;;5033489;28;20187;-78
2022/10/11 09:39:26;;;;;;;7.07;1.90;;;;;;;;;;5032823;28;20201;-78
2022/10/11 09:41:52;;;;;;;10.10;2.20;;;;;;;;;;5032379;28;20686;-78
2022/10/11 09:44:29;;;;;;;6.13;1.40;;;;;;;;;;5032551;28;20210;-78
2022/10/11 09:46:55;;;;;;;9.00;2.50;;;;;;;;;;5033538;28;20190;-80
2022/10/11 09:49:23;;;;;;;8.53;1.70;;;;;;;;;;5032307;28;20174;-77
2022/10/11 09:51:51;;;;;;;9.10;1.80;;;;;;;;;;5015740;28;20202;-77
2022/10/11 09:54:17;;;;;;;6.73;1.70;;;;;;;;;;5032520;28;20181;-77
2022/10/11 09:56:44;;;;;;;6.83;1.60;;;;;;;;;;5016088;28;20269;-78
2022/10/11 09:59:27;;;;;;;5.00;1.70;;;;;;;;;;5032109;28;20549;-78
2022/10/11 10:02:12;;;;;;;6.87;1.90;;;;;;;;;;5031809;28;20178;-78
2022/10/11 10:04:53;;;;;;;41.57;13.33;;;;;;;;;;5032103;28;20170;-76
2022/10/11 10:07:20;;;;;;;27.37;10.60;;;;;;;;;;5031819;28;20181;-76
2022/10/11 10:09:46;;;;;;;8.20;1.77;;;;;;;;;;5031878;28;20190;-75
2022/10/11 10:12:13;;;;;;;17.20;8.10;;;;;;;;;;5031489;28;20175;-75
2022/10/11 10:14:39;;;;;;;26.67;9.43;;;;;;;;;;5031971;28;20174;-75
2022/10/11 10:20:19;;;;;;;7.10;1.87;;;;;;;;;;5032920;28;20161;-75
2022/10/11 10:22:46;;;;;;;10.70;4.23;;;;;;;;;;5031474;28;20162;-75
2022/10/11 10:25:19;;;;;;;6.20;2.30;;;;;;;;;;5015296;28;20218;-76
2022/10/11 10:27:55;;;;;;;4.73;1.70;;;;;;;;;;5031621;28;20175;-76
2022/10/11 10:30:21;;;;;;;5.00;1.43;;;;;;;;;;5031232;28;20224;-78
2022/10/11 10:32:53;;;;;;;5.20;1.53;;;;;;;;;;5031834;28;20517;-78
2022/10/11 10:35:28;;;;;;;3.53;1.43;;;;;;;;;;5032125;28;20204;-78
2022/10/11 10:38:13;;;;;;;4.60;1.50;;;;;;;;;;5032351;28;20231;-78
2022/10/11 10:40:39;;;;;;;5.73;1.90;;;;;;;;;;5031861;28;20257;-79
2022/10/11 10:43:05;;;;;;;5.50;1.50;;;;;;;;;;5033014;28;20178;-79
2022/10/11 10:45:42;;;;;;;5.20;1.97;;;;;;;;;;5032257;28;20198;-79
2022/10/11 10:48:08;;;;;;;7.97;1.87;;;;;;;;;;5031987;28;20620;-79
2022/10/11 10:50:54;;;;;;;4.63;1.47;;;;;;;;;;5031671;28;20263;-79
2022/10/11 10:53:23;;;;;;;5.70;1.90;;;;;;;;;;5032138;28;20170;-78
2022/10/11 10:55:52;;;;;;;4.13;1.80;;;;;;;;;;5032725;28;20194;-78
2022/10/11 10:58:27;;;;;;;5.37;1.70;;;;;;;;;;5032070;28;20701;-75
2022/10/11 11:00:56;;;;;;;5.30;1.90;;;;;;;;;;5031221;28;20178;-76
2022/10/11 11:03:29;;;;;;;4.57;1.30;;;;;;;;;;5030993;28;20266;-76
2022/10/11 11:06:02;;;;;;;5.90;1.67;;;;;;;;;;5032282;28;20280;-76
2022/10/11 11:08:47;;;;;;;4.27;1.43;;;;;;;;;;5014734;28;20192;-76
2022/10/11 11:11:27;;;;;;;4.50;1.60;;;;;;;;;;5032118;28;20225;-76
2022/10/11 11:14:16;;;;;;;5.47;1.57;;;;;;;;;;5031123;28;20263;-76
2022/10/11 11:17:05;;;;;;;8.73;1.40;;;;;;;;;;5030608;28;20666;-76
2022/10/11 11:19:52;;;;;;;2.90;1.47;;;;;;;;;;5032297;28;20238;-76
2022/10/11 11:22:21;;;;;;;6.33;1.80;;;;;;;;;;5031116;28;20166;-76
2022/10/11 11:24:56;;;;;;;6.57;1.60;;;;;;;;;;5031018;28;20174;-76
2022/10/11 11:27:22;;;;;;;4.03;1.57;;;;;;;;;;5032228;28;20159;-76
2022/10/11 11:30:07;;;;;;;3.33;1.30;;;;;;;;;;5032172;28;20222;-76
2022/10/11 11:32:36;;;;;;;4.23;1.47;;;;;;;;;;5031101;28;20212;-76
2022/10/11 11:35:05;;;;;;;8.47;2.17;;;;;;;;;;5032066;28;20244;-76
2022/10/11 11:37:33;;;;;;;3.60;1.37;;;;;;;;;;5014524;28;20229;-76
2022/10/11 11:40:05;;;;;;;3.60;1.37;;;;;;;;;;5032731;28;20171;-76
2022/10/11 11:42:35;;;;;;;3.97;1.40;;;;;;;;;;5034486;28;20171;-77
2022/10/11 11:45:11;;;;;;;4.57;1.60;;;;;;;;;;5034409;28;20198;-76
2022/10/11 11:47:40;;;;;;;5.10;1.57;;;;;;;;;;5034681;28;20197;-76
2022/10/11 11:50:21;;;;;;;3.70;1.20;;;;;;;;;;5034391;28;20198;-76
2022/10/11 11:52:49;;;;;;;5.27;1.40;;;;;;;;;;5034384;28;20194;-77
2022/10/11 11:55:34;;;;;;;3.80;1.30;;;;;;;;;;5018134;28;20194;-76
2022/10/11 11:58:20;;;;;;;4.73;1.40;;;;;;;;;;5034459;28;20202;-76
2022/10/11 12:01:19;;;;;;;3.87;1.40;;;;;;;;;;4985218;28;20213;-79
2022/10/11 12:03:47;;;;;;;2.87;1.40;;;;;;;;;;4980867;28;20182;-76
2022/10/11 12:06:13;;;;;;;3.53;1.23;;;;;;;;;;5017553;28;20202;-76
2022/10/11 12:09:15;;;;;;;3.63;1.30;;;;;;;;;;5033990;28;20182;-76
2022/10/11 12:12:07;;;;;;;2.40;1.10;;;;;;;;;;4938591;29;20239;-76
2022/10/11 12:14:33;;;;;;;3.83;1.47;;;;;;;;;;5030396;28;20221;-76
2022/10/11 12:20:02;;;;;;;3.67;1.20;;;;;;;;;;5035154;28;20177;-76
2022/10/11 12:22:28;;;;;;;2.93;1.30;;;;;;;;;;5033593;28;20186;-76
2022/10/11 12:25:15;;;;;;;2.90;1.20;;;;;;;;;;5033745;28;20234;-76
2022/10/11 12:27:42;;;;;;;5.90;1.60;;;;;;;;;;5016745;28;20268;-76
2022/10/11 12:30:26;;;;;;;3.57;1.30;;;;;;;;;;5033798;28;20198;-76
2022/10/11 12:33:02;;;;;;;4.13;1.40;;;;;;;;;;5034653;28;20170;-76
2022/10/11 12:35:32;;;;;;;3.17;1.60;;;;;;;;;;5033728;28;20197;-76
2022/10/11 12:38:13;;;;;;;3.95;1.20;;;;;;;;;;5033660;28;20171;-76
2022/10/11 12:40:40;;;;;;;2.47;1.17;;;;;;;;;;5033790;28;20186;-76
2022/10/11 12:43:26;;;;;;;1.80;0.93;;;;;;;;;;5034788;28;20262;-76
2022/10/11 12:45:52;;;;;;;4.22;1.30;;;;;;;;;;5033579;28;20201;-76
2022/10/11 12:48:37;;;;;;;3.35;1.40;;;;;;;;;;5033233;28;20174;-76
2022/10/11 12:51:09;;;;;;;4.95;1.30;;;;;;;;;;5033326;28;20319;-76
2022/10/11 12:53:35;;;;;;;3.63;1.30;;;;;;;;;;5033843;28;20269;-76
2022/10/11 12:56:09;;;;;;;2.88;1.23;;;;;;;;;;5033365;28;20195;-76
2022/10/11 12:58:45;;;;;;;3.60;1.42;;;;;;;;;;5033211;28;20170;-77
2022/10/11 13:01:11;;;;;;;2.92;1.27;;;;;;;;;;5034066;28;20163;-78
2022/10/11 13:04:03;;;;;;;3.88;1.35;;;;;;;;;;5035108;28;20224;-78
2022/10/11 13:06:32;;;;;;;2.90;1.23;;;;;;;;;;5029983;28;20580;-77
2022/10/11 13:09:01;;;;;;;3.95;1.00;;;;;;;;;;5017996;28;20181;-78
2022/10/11 13:11:30;;;;;;;3.45;1.15;;;;;;;;;;5034963;28;20213;-78
2022/10/11 13:13:57;;;;;;;3.47;0.90;;;;;;;;;;5034697;28;20171;-78
2022/10/11 13:16:26;;;;;;;3.38;1.10;;;;;;;;;;5033712;28;20213;-78
2022/10/11 13:18:58;;;;;;;3.35;1.30;;;;;;;;;;5034510;28;20163;-78
2022/10/11 13:21:24;;;;;;;4.97;1.27;;;;;;;;;;5035425;28;20610;-77
2022/10/11 13:23:54;;;;;;;4.70;1.20;;;;;;;;;;5034325;28;20181;-78
2022/10/11 13:26:20;;;;;;;3.50;1.20;;;;;;;;;;5034228;28;20212;-78
2022/10/11 13:28:47;;;;;;;3.58;1.30;;;;;;;;;;5017787;28;20187;-78
2022/10/11 13:31:13;;;;;;;3.08;1.30;;;;;;;;;;5017300;28;20201;-78
2022/10/11 13:33:40;;;;;;;4.00;1.50;;;;;;;;;;5034152;28;20175;-80
2022/10/11 13:36:08;;;;;;;6.18;1.55;;;;;;;;;;5034892;28;20194;-80
2022/10/11 13:38:35;;;;;;;3.17;1.05;;;;;;;;;;5034070;28;20201;-81
2022/10/11 13:41:03;;;;;;;4.00;1.13;;;;;;;;;;5034384;28;20182;-78
2022/10/11 13:43:30;;;;;;;1.90;0.82;;;;;;;;;;5016441;28;20179;-76
2022/10/11 13:45:58;;;;;;;4.25;1.23;;;;;;;;;;5032344;28;20194;-76
2022/10/11 13:48:24;;;;;;;4.20;1.13;;;;;;;;;;5032355;28;20185;-76
2022/10/11 13:51:07;;;;;;;4.43;1.25;;;;;;;;;;5031842;28;20737;-76
2022/10/11 13:53:33;;;;;;;2.47;1.20;;;;;;;;;;5031880;28;20175;-76
2022/10/11 13:56:01;;;;;;;3.85;1.15;;;;;;;;;;5015562;28;20256;-76
2022/10/11 13:58:30;;;;;;;2.45;1.10;;;;;;;;;;5031908;28;20629;-76
2022/10/11 14:00:57;;;;;;;5.25;1.40;;;;;;;;;;5032229;28;20170;-76
2022/10/11 14:03:26;;;;;;;2.72;1.08;;;;;;;;;;5030967;28;20174;-76
2022/10/11 14:05:53;;;;;;;2.97;1.30;;;;;;;;;;5031924;28;20194;-76
2022/10/11 14:08:38;;;;;;;4.95;1.20;;;;;;;;;;5015627;28;20264;-76
2022/10/11 14:11:05;;;;;;;3.22;1.20;;;;;;;;;;5031955;28;20198;-76
2022/10/11 14:13:34;;;;;;;2.92;1.15;;;;;;;;;;5032852;28;20193;-76
2022/10/11 14:19:08;;;;;;;4.47;1.45;;;;;;;;;;5033080;28;20216;-76
2022/10/11 14:22:01;;;;;;;2.47;1.48;;;;;;;;;;5031487;28;20167;-76
2022/10/11 14:24:27;;;;;;;3.55;1.55;;;;;;;;;;5029249;28;20186;-76
2022/10/11 14:26:54;;;;;;;5.95;1.60;;;;;;;;;;5015352;28;20228;-76
2022/10/11 14:29:25;;;;;;;2.80;1.05;;;;;;;;;;5032698;28;20170;-76
2022/10/11 14:31:51;;;;;;;3.65;1.23;;;;;;;;;;5015128;28;20238;-76
2022/10/11 14:34:19;;;;;;;3.78;1.95;;;;;;;;;;5031699;28;20182;-76
2022/10/11 14:36:45;;;;;;;4.57;1.20;;;;;;;;;;5033470;28;20203;-78
2022/10/11 14:39:19;;;;;;;4.37;1.10;;;;;;;;;;5034922;28;20262;-78
2022/10/11 14:41:45;;;;;;;4.20;1.40;;;;;;;;;;5034838;28;20505;-78
2022/10/11 14:44:12;;;;;;;4.27;1.30;;;;;;;;;;5034626;28;20655;-78
2022/10/11 14:46:39;;;;;;;2.90;1.17;;;;;;;;;;5034393;28;20244;-78
2022/10/11 14:49:16;;;;;;;3.03;1.00;;;;;;;;;;5034360;28;20178;-78
2022/10/11 14:51:43;;;;;;;2.13;1.10;;;;;;;;;;5034650;28;20661;-78
2022/10/11 14:54:09;;;;;;;4.63;1.33;;;;;;;;;;5035140;28;20178;-78
2022/10/11 14:56:35;;;;;;;2.83;1.17;;;;;;;;;;5018498;28;20563;-78
2022/10/11 14:59:01;;;;;;;3.10;1.37;;;;;;;;;;5034268;28;20175;-78
2022/10/11 15:01:27;;;;;;;3.53;1.33;;;;;;;;;;5034168;28;20228;-78
2022/10/11 15:03:53;;;;;;;4.40;1.30;;;;;;;;;;5017988;28;20190;-78
2022/10/11 15:06:24;;;;;;;4.57;1.37;;;;;;;;;;5017590;28;20237;-78